Details From AYPY - Port Moresby Jacksons Intl
To AGGH - Honiara Intl
Flight Number -
Tags Decoded
Created
Modified
Stats Distance 770 nm / 1,426 km
Max Altitude 0 ft / 0 m
Waypoints 7
Social Downloads 1
Likes 0
Share VATSIM

Download

Looking for another format? Having issues loading an existing format? Contact us
Advertisement - Login to hide

Notes

Decoded

Route

AYPY PY058 PY013 GUVOG NIPOK KOPAU AGGH

ID Type Via Altitude Latitude Longitude Leg Dist Tot Dist Heading (true) Name
O AYPY APT - 0 ft / 0 m -9.43471˚ 147.21302˚ - 0 nm - -
PY058 FIX - 0 ft / 0 m -9.54443˚ 147.28271˚ 7 nm 7 nm 148° / 148° -
PY013 FIX - 0 ft / 0 m -9.63391˚ 147.33699˚ 6 nm 14 nm 149° / 149° -
GUVOG FIX - 0 ft / 0 m -10.15833˚ 152.36167˚ 298 nm 312 nm 96° / 96° -
NIPOK FIX - 0 ft / 0 m -9.92833˚ 155.00000˚ 156 nm 469 nm 85° / 85° -
KOPAU FIX - 0 ft / 0 m -9.53167˚ 159.60667˚ 273 nm 743 nm 85° / 85° -
O AGGH APT - 0 ft / 0 m -9.43174˚ 160.04547˚ 26 nm 770 nm 77° / 77° HONIARA INTL

Altitude Profile

Advertisement - Login to hide

Weather


0- 5 10 15 20 25 30 35+ Temperature / ° C

Clouds and Precipitation
Forecast for 2017-12-18 00:00 UTC. Updated 15 minutes ago

Ground ~20,000 ft ~40,000 ft Winds

AYPY

Details ICAO AYPY (POM)
Name Port Moresby Jacksons Intl
Region Papua New Guinea
Timezone Pacific/Port_Moresby (UTC+10.0)
Stats Elevation 146 ft / 45 m (AMSL)
Location -9.442079° 147.219200°
Runways 2
Magnetic Variation 5.901° E

METAR

AYPY 171900Z 00000KT 9999 SCT040 BKN150 24/22 Q1006

Decode

TAF

TAF TAF AYPY 171601Z 1718/1818 00000KT 9999 SCT035 FM172100 VRB03KT 9999 FEW018 SCT035 FM180001 21007KT 9999 SCT018 T 25 26 30 32 Q 1006 1007 1009 1008

Decode

Departure Runways

ID Width Length Bearing (true) Bearing (mag) Surface Threshold Offset Overrun Length
14L 148 ft / 45 m 9,077 ft / 2,767 m 148.61° 142.71° Asphalt 0 ft / 0 m 200 ft / 61 m
14R 148 ft / 45 m 6,802 ft / 2,073 m 148.65° 142.75° Asphalt 0 ft / 0 m 0 ft / 0 m
32L 148 ft / 45 m 6,802 ft / 2,073 m 328.65° 322.75° Asphalt 0 ft / 0 m 0 ft / 0 m
32R 148 ft / 45 m 9,077 ft / 2,767 m 328.61° 322.71° Asphalt 0 ft / 0 m 200 ft / 61 m

AGGH

Details ICAO AGGH (HIR)
Name HONIARA INTL
Region Solomon Islands
Timezone Pacific/Guadalcanal (UTC+11.0)
Stats Elevation 28 ft / 9 m (AMSL)
Location -9.428258° 160.054534°
Runways 1
Magnetic Variation 8.675° E

METAR

AGGH 171930Z 18002KT 9999 -RA SCT014 FEW015CB OVC100 25/25 Q1006

Decode

TAF

TAF AGGH 171715Z 1718/1818 VRB03KT 9999 -SHRA FEW015 SCT027 BKN100 FM172300 34010KT 9999 -SHRA SCT018 BKN100 PROB40 INTER 1718/1808 3000 TSSH SCT015 FEW016CB BKN026 T 25 27 29 30 Q 1005 1007 1007 1005

Decode

Destination Runways

ID Width Length Bearing (true) Bearing (mag) Surface Threshold Offset Overrun Length
06 148 ft / 45 m 7,232 ft / 2,204 m 67.90° 59.22° Asphalt 0 ft / 0 m 184 ft / 56 m
24 148 ft / 45 m 7,232 ft / 2,204 m 247.90° 239.22° Asphalt 0 ft / 0 m 171 ft / 52 m

Popular Alternatives